עמוד ראשי
METAR-TAF:

METAR-TAF

שדות תעופה :

נמל התעופה הבינלאומי קי וסט

קי וסט, פלורידה, ארצות הברית

קו רוחב: 24-33-13N, קו אורך: 081-45-13W, גובה: 1מטר

תצפית מזג אוויר נוכחית

הדו"ח נערך לפני 54דקות, בשעה 15:53 UTC
רוח 17קשר מכיוון מזרח עם משבים עד 24קשר
טמפרטורת 31 צלסיוס
לחות 71%
לחץ 1014 hPa
ראות: 16.1קילומטר
שמיים נקיים

METAR: KEYW 171553Z 09017G24KT 10SM CLR 31/25 A2995 RMK AO2 SLP146 T03110250

זמן: 12:47 (16:47 UTC)

תחזית

הדו"ח נערך לפני 1 שעות ו 49דקות, בשעה 14:58 UTC
תחזית בתוקף מ 17 ב 15 UTC עד 18 ב 12 UTC
רוח 13קשר מכיוון מזרח עם משבים עד 24קשר
ראות: 10קילומטר
עננים פזורים בגובה 2500רגל
עננים פזורים בגובה 15000רגל

TAF: KEYW 171458Z 1715/1812 09013G24KT P6SM SCT025 SCT150

תצפיות ותחזיות מזג אוויר לגבי יותר מ- 4,000 שדות תעופה ברחבי העולם. דוחות METAR ו- TAF.

התחנות הזמינות מסומנות בנקודות צהובות ואדומות על גבי המפה.

העבר את העכבר לנקודה הצבעונית על מנת לראות את שם התחנה.

לאחר מכן, לחץ כדי לראות את תוכן ואת תחזיות מזג האוויר.

כדי לשנות את המפה: לחץ על הכפתורים הירוקים עם הפלוס השחור כדי להתקרב; על הכפתור הירוק עם המקף כדי להתרחק; או בחיצים הירוקים למפות סמוכות.


METAR-TAF: